createdAt,value
2018-11-01T00:02:21.437Z,5.57
2018-11-01T00:04:57.295Z,6.30
2018-11-01T00:07:32.277Z,5.50
2018-11-01T00:10:07.877Z,5.80
2018-11-01T00:12:44.157Z,6.07
2018-11-01T00:15:19.776Z,6.00
2018-11-01T00:17:54.930Z,6.13
2018-11-01T00:20:30.072Z,6.37
2018-11-01T00:23:06.087Z,5.80
2018-11-01T00:25:41.072Z,6.03
2018-11-01T00:28:16.203Z,6.20
2018-11-01T00:30:51.114Z,6.53
2018-11-01T00:33:26.181Z,5.83
2018-11-01T00:36:01.659Z,6.10
2018-11-01T00:38:36.882Z,6.53
2018-11-01T00:41:12.033Z,6.70
2018-11-01T00:43:47.361Z,6.33
2018-11-01T00:46:22.536Z,6.47
2018-11-01T00:48:57.707Z,6.40
2018-11-01T00:51:32.804Z,6.20
2018-11-01T00:54:07.883Z,6.23
2018-11-01T00:56:43.030Z,6.93
2018-11-01T00:59:17.743Z,9.13
2018-11-01T01:01:52.898Z,7.30
2018-11-01T01:04:28.145Z,6.97
2018-11-01T01:07:03.502Z,6.83
2018-11-01T01:09:39.146Z,6.40
2018-11-01T01:12:14.611Z,6.40
2018-11-01T01:14:49.469Z,6.00
2018-11-01T01:17:24.906Z,5.80
2018-11-01T01:19:59.899Z,5.90
2018-11-01T01:22:35.708Z,5.70
2018-11-01T01:25:12.832Z,5.10
2018-11-01T01:27:48.735Z,4.90
2018-11-01T01:30:23.650Z,4.60
2018-11-01T01:32:58.779Z,4.50
2018-11-01T01:35:33.821Z,4.73
2018-11-01T01:38:08.545Z,4.80
2018-11-01T01:40:43.867Z,4.57
2018-11-01T01:43:19.048Z,4.60
2018-11-01T01:45:51.729Z,4.10
2018-11-01T01:48:26.590Z,4.50
2018-11-01T01:51:01.725Z,5.10
2018-11-01T01:53:36.706Z,4.13
2018-11-01T01:58:52.582Z,4.77
2018-11-01T02:01:27.780Z,5.03
2018-11-01T02:04:02.825Z,3.70
2018-11-01T02:06:38.269Z,4.60
2018-11-01T02:09:13.857Z,4.00
2018-11-01T02:11:48.935Z,4.17
2018-11-01T02:14:24.957Z,4.77
2018-11-01T02:17:00.101Z,4.70
2018-11-01T02:19:35.246Z,4.20
2018-11-01T02:22:10.356Z,4.67
2018-11-01T02:24:45.409Z,4.23
2018-11-01T02:27:20.238Z,4.07
2018-11-01T02:29:55.408Z,4.30
2018-11-01T02:32:31.200Z,4.60
2018-11-01T02:35:07.395Z,4.13
2018-11-01T02:37:42.765Z,4.30
2018-11-01T02:40:18.306Z,4.50
2018-11-01T02:42:53.603Z,4.40
2018-11-01T02:45:28.861Z,4.13
2018-11-01T02:48:03.570Z,4.63
2018-11-01T02:50:38.667Z,4.33
2018-11-01T02:53:13.815Z,4.63
2018-11-01T02:55:48.999Z,4.70
2018-11-01T02:58:24.099Z,4.17
2018-11-01T03:00:59.133Z,4.57
2018-11-01T03:03:34.383Z,4.70
2018-11-01T03:06:09.305Z,4.53
2018-11-01T03:08:44.252Z,4.50
2018-11-01T03:11:19.145Z,4.23
2018-11-01T03:13:54.317Z,4.10
2018-11-01T03:16:29.408Z,4.10
2018-11-01T03:19:04.520Z,3.90
2018-11-01T03:21:39.598Z,3.90
2018-11-01T03:24:14.858Z,4.17
2018-11-01T03:26:49.877Z,3.70
2018-11-01T03:29:24.923Z,4.17
2018-11-01T03:31:59.860Z,4.13
2018-11-01T03:34:29.436Z,4.27
2018-11-01T03:37:04.441Z,3.90
2018-11-01T03:39:39.560Z,4.20
2018-11-01T03:42:14.668Z,3.97
2018-11-01T03:44:49.562Z,4.20
2018-11-01T03:47:25.090Z,4.43
2018-11-01T03:50:00.049Z,3.90
2018-11-01T03:52:29.338Z,4.17
2018-11-01T03:55:04.455Z,4.00
2018-11-01T03:57:40.106Z,4.00
2018-11-01T04:00:15.990Z,3.60
2018-11-01T04:02:52.090Z,3.93
2018-11-01T04:05:27.080Z,4.03
2018-11-01T04:08:02.265Z,3.67
2018-11-01T04:10:37.163Z,3.97
2018-11-01T04:13:12.500Z,4.00
2018-11-01T04:15:47.534Z,4.10
2018-11-01T04:18:22.425Z,3.60
2018-11-01T04:20:57.145Z,4.17
2018-11-01T04:23:32.496Z,3.80
2018-11-01T04:26:07.288Z,4.00
2018-11-01T04:28:42.390Z,4.30
2018-11-01T04:31:17.711Z,4.10
2018-11-01T04:33:53.403Z,3.73
2018-11-01T04:36:29.067Z,3.87
2018-11-01T04:39:07.024Z,4.07
2018-11-01T04:41:41.984Z,4.20
2018-11-01T04:44:18.228Z,3.83
2018-11-01T04:46:53.383Z,3.90
2018-11-01T04:49:28.427Z,4.03
2018-11-01T04:52:04.426Z,3.90
2018-11-01T04:54:39.410Z,3.63
2018-11-01T04:57:14.380Z,4.23
2018-11-01T04:59:49.409Z,4.47
2018-11-01T05:02:24.777Z,4.30
2018-11-01T05:05:00.275Z,4.00
2018-11-01T05:07:35.668Z,3.83
2018-11-01T05:10:12.929Z,4.43
2018-11-01T05:12:47.969Z,3.87
2018-11-01T05:15:23.133Z,4.20
2018-11-01T05:17:58.227Z,4.07
2018-11-01T05:20:33.114Z,4.10
2018-11-01T05:23:08.390Z,3.93
2018-11-01T05:25:43.591Z,3.83
2018-11-01T05:28:19.045Z,4.10
2018-11-01T05:30:54.277Z,4.03
2018-11-01T05:33:29.280Z,3.70
2018-11-01T05:36:04.362Z,4.20
2018-11-01T05:38:39.453Z,4.17
2018-11-01T05:41:14.410Z,3.80
2018-11-01T05:43:49.569Z,4.03
2018-11-01T05:46:24.536Z,3.87
2018-11-01T05:49:00.061Z,4.37
2018-11-01T05:51:35.292Z,4.27
2018-11-01T05:54:10.159Z,4.03
2018-11-01T05:56:45.272Z,4.20
2018-11-01T05:59:20.320Z,3.73
2018-11-01T06:01:57.911Z,4.20
2018-11-01T06:04:33.186Z,4.07
2018-11-01T06:07:08.174Z,4.47
2018-11-01T06:09:44.321Z,4.00
2018-11-01T06:12:19.865Z,4.07
2018-11-01T06:14:55.325Z,4.20
2018-11-01T06:17:30.780Z,4.10
2018-11-01T06:20:07.503Z,4.20
2018-11-01T06:22:42.703Z,3.60
2018-11-01T06:25:18.076Z,4.23
2018-11-01T06:27:53.299Z,4.03
2018-11-01T06:30:28.794Z,3.77
2018-11-01T06:33:03.836Z,4.20
2018-11-01T06:35:41.989Z,3.60
2018-11-01T06:38:17.114Z,3.90
2018-11-01T06:40:52.107Z,4.17
2018-11-01T06:43:27.289Z,4.60
2018-11-01T06:46:03.307Z,4.03
2018-11-01T06:48:38.678Z,4.27
2018-11-01T06:51:13.736Z,4.20
2018-11-01T06:53:49.139Z,4.20
2018-11-01T06:56:24.349Z,4.57
2018-11-01T06:59:00.274Z,4.37
2018-11-01T07:01:35.524Z,4.77
2018-11-01T07:04:10.857Z,4.80
2018-11-01T07:06:46.127Z,4.40
2018-11-01T07:09:21.151Z,4.27
2018-11-01T07:11:56.109Z,4.07
2018-11-01T07:14:31.135Z,4.13
2018-11-01T07:17:06.530Z,4.20
2018-11-01T07:19:41.879Z,4.47
2018-11-01T07:22:16.814Z,4.50
2018-11-01T07:24:51.539Z,4.27
2018-11-01T07:27:26.807Z,4.30
2018-11-01T07:30:01.542Z,4.70
2018-11-01T07:32:36.782Z,4.40
2018-11-01T07:35:13.237Z,4.67
2018-11-01T07:37:48.653Z,5.07
2018-11-01T07:40:23.718Z,4.67
2018-11-01T07:42:59.213Z,4.87
2018-11-01T07:45:34.998Z,4.93
2018-11-01T07:48:10.477Z,4.50
2018-11-01T07:50:45.652Z,4.90
2018-11-01T07:53:21.884Z,4.90
2018-11-01T07:55:57.061Z,4.03
2018-11-01T07:58:32.317Z,5.00
2018-11-01T08:01:08.059Z,4.57
2018-11-01T08:03:43.278Z,5.07
2018-11-01T08:06:18.747Z,4.67
2018-11-01T08:08:54.086Z,4.80
2018-11-01T08:11:29.468Z,5.10
2018-11-01T08:14:05.883Z,4.97
2018-11-01T08:16:41.342Z,4.70
2018-11-01T08:19:16.518Z,4.77
2018-11-01T08:21:51.469Z,4.47
2018-11-01T08:24:21.074Z,5.10
2018-11-01T08:26:56.192Z,4.53
2018-11-01T08:29:31.762Z,4.73
2018-11-01T08:32:06.911Z,4.30
2018-11-01T08:34:42.759Z,4.50
2018-11-01T08:37:18.188Z,4.63
2018-11-01T08:39:54.355Z,4.40
2018-11-01T08:42:30.453Z,4.60
2018-11-01T08:45:06.823Z,4.73
2018-11-01T08:47:42.597Z,4.40
2018-11-01T08:50:18.194Z,4.20
2018-11-01T08:52:54.332Z,4.43
2018-11-01T08:55:29.362Z,4.73
2018-11-01T08:58:04.600Z,5.07
2018-11-01T09:00:39.748Z,4.17
2018-11-01T09:03:15.295Z,5.30
2018-11-01T09:05:45.161Z,4.57
2018-11-01T09:08:14.674Z,4.70
2018-11-01T09:10:44.585Z,4.43
2018-11-01T09:13:14.108Z,4.93
2018-11-01T09:15:44.185Z,4.87
2018-11-01T09:18:13.994Z,4.53
2018-11-01T09:20:43.393Z,5.03
2018-11-01T09:23:13.069Z,5.53
2018-11-01T09:25:42.516Z,5.50
2018-11-01T09:28:12.375Z,4.90
2018-11-01T09:30:41.672Z,5.50
2018-11-01T09:33:16.924Z,4.40
2018-11-01T09:35:53.162Z,5.23
2018-11-01T09:38:28.189Z,4.60
2018-11-01T09:41:03.389Z,5.30
2018-11-01T09:43:39.350Z,5.00
2018-11-01T09:46:14.773Z,4.60
2018-11-01T09:48:49.688Z,5.00
2018-11-01T09:51:24.929Z,5.10
2018-11-01T09:54:00.250Z,4.83
2018-11-01T09:56:35.666Z,5.40
2018-11-01T09:59:11.249Z,5.00
2018-11-01T10:01:46.736Z,5.20
2018-11-01T10:04:21.461Z,5.40
2018-11-01T10:06:56.573Z,4.87
2018-11-01T10:09:31.933Z,4.80
2018-11-01T10:12:07.301Z,4.80
2018-11-01T10:14:42.291Z,4.80
2018-11-01T10:17:17.612Z,5.60
2018-11-01T10:19:53.518Z,5.00
2018-11-01T10:22:28.876Z,5.30
2018-11-01T10:25:04.240Z,4.97
2018-11-01T10:27:40.309Z,5.60
2018-11-01T10:30:16.989Z,5.43
2018-11-01T10:32:50.327Z,4.70
2018-11-01T10:35:25.633Z,5.27
2018-11-01T10:38:00.617Z,5.73
2018-11-01T10:40:35.797Z,5.00
2018-11-01T10:43:12.009Z,5.50
2018-11-01T10:45:47.244Z,5.80
2018-11-01T10:48:22.313Z,5.30
2018-11-01T10:50:57.910Z,5.67
2018-11-01T10:53:33.230Z,5.70
2018-11-01T10:56:09.047Z,5.70
2018-11-01T10:58:44.088Z,5.53
2018-11-01T11:02:22.912Z,5.70
2018-11-01T11:04:58.414Z,5.77
2018-11-01T11:07:33.638Z,5.90
2018-11-01T11:10:08.835Z,6.13
2018-11-01T11:12:44.165Z,5.93
2018-11-01T11:15:19.965Z,5.70
2018-11-01T11:17:55.451Z,5.87
2018-11-01T11:20:31.044Z,5.80
2018-11-01T11:23:06.271Z,6.23
2018-11-01T11:25:41.786Z,6.07
2018-11-01T11:28:17.028Z,6.43
2018-11-01T11:30:52.478Z,6.30
2018-11-01T11:33:27.965Z,6.10
2018-11-01T11:36:03.016Z,6.33
2018-11-01T11:38:38.442Z,6.77
2018-11-01T11:41:13.782Z,6.57
2018-11-01T11:43:48.822Z,6.77
2018-11-01T11:46:23.717Z,6.10
2018-11-01T11:48:59.030Z,6.20
2018-11-01T11:51:35.019Z,5.90
2018-11-01T11:54:10.169Z,6.00
2018-11-01T11:56:45.601Z,5.80
2018-11-01T11:59:20.890Z,6.23
2018-11-01T12:01:56.112Z,6.97
2018-11-01T12:04:31.238Z,6.43
2018-11-01T12:07:06.634Z,6.33
2018-11-01T12:09:42.002Z,6.20
2018-11-01T12:12:17.294Z,6.30
2018-11-01T12:14:52.512Z,6.70
2018-11-01T12:17:27.733Z,6.50
2018-11-01T12:20:03.150Z,6.30
2018-11-01T12:22:38.836Z,6.80
2018-11-01T12:25:13.950Z,6.80
2018-11-01T12:27:48.709Z,6.87
2018-11-01T12:30:24.204Z,6.33
2018-11-01T12:33:00.058Z,6.50
2018-11-01T12:35:35.654Z,6.10
2018-11-01T12:38:10.942Z,6.23
2018-11-01T12:40:46.483Z,6.60
2018-11-01T12:43:21.543Z,5.63
2018-11-01T12:45:57.122Z,6.33
2018-11-01T12:48:32.336Z,6.70
2018-11-01T12:51:07.534Z,5.73
2018-11-01T12:53:42.881Z,7.00
2018-11-01T12:56:18.547Z,6.80
2018-11-01T12:58:53.709Z,6.60
2018-11-01T13:01:29.148Z,6.60
2018-11-01T13:04:04.729Z,6.40
2018-11-01T13:06:40.741Z,6.83
2018-11-01T13:09:16.442Z,6.30
2018-11-01T13:11:51.917Z,6.90
2018-11-01T13:14:26.921Z,6.50
2018-11-01T13:17:02.675Z,6.10
2018-11-01T13:19:38.051Z,7.00
2018-11-01T13:22:13.120Z,6.90
2018-11-01T13:24:48.347Z,7.00
2018-11-01T13:27:23.289Z,6.73
2018-11-01T13:29:59.295Z,6.90
2018-11-01T13:32:28.638Z,7.40
2018-11-01T13:35:03.759Z,6.90
2018-11-01T13:37:38.969Z,7.13
2018-11-01T13:40:14.417Z,7.37
2018-11-01T13:42:49.782Z,7.57
2018-11-01T13:45:25.248Z,7.90
2018-11-01T13:48:00.580Z,8.00
2018-11-01T13:50:36.176Z,8.20
2018-11-01T13:53:11.664Z,7.80
2018-11-01T13:55:48.486Z,7.60
2018-11-01T13:58:23.603Z,8.30
2018-11-01T14:00:59.151Z,7.97
2018-11-01T14:03:34.546Z,7.70
2018-11-01T14:06:10.962Z,8.30
2018-11-01T14:08:46.403Z,8.80
2018-11-01T14:11:21.596Z,7.53
2018-11-01T14:13:57.161Z,7.67
2018-11-01T14:16:32.116Z,8.20
2018-11-01T14:19:07.585Z,8.20
2018-11-01T14:21:42.779Z,9.20
2018-11-01T14:24:17.844Z,9.00
2018-11-01T14:26:52.890Z,8.30
2018-11-01T14:29:28.240Z,10.53
2018-11-01T14:32:03.212Z,8.73
2018-11-01T14:34:38.487Z,8.20
2018-11-01T14:37:13.724Z,8.40
2018-11-01T14:39:48.754Z,8.27
2018-11-01T14:42:23.920Z,9.17
2018-11-01T14:44:58.892Z,9.57
2018-11-01T14:47:34.296Z,10.07
2018-11-01T14:50:10.648Z,9.53
2018-11-01T14:52:47.024Z,9.43
2018-11-01T14:55:22.874Z,10.10
2018-11-01T14:57:58.641Z,10.47
2018-11-01T15:00:32.757Z,9.47
2018-11-01T15:03:08.140Z,10.40
2018-11-01T15:05:43.404Z,10.00
2018-11-01T15:08:18.459Z,9.50
2018-11-01T15:10:53.713Z,10.60
2018-11-01T15:13:28.831Z,11.63
2018-11-01T15:16:04.586Z,11.30
2018-11-01T15:18:39.886Z,10.97
2018-11-01T15:21:15.050Z,11.17
2018-11-01T15:23:50.294Z,12.00
2018-11-01T15:26:25.942Z,11.80
2018-11-01T15:29:01.758Z,12.37
2018-11-01T15:31:36.857Z,13.30
2018-11-01T15:34:12.827Z,13.23
2018-11-01T15:36:48.620Z,12.00
2018-11-01T15:39:23.727Z,11.83
2018-11-01T15:41:59.177Z,11.93
2018-11-01T15:44:34.528Z,12.60
2018-11-01T15:47:09.829Z,12.17
2018-11-01T15:49:45.046Z,11.83
2018-11-01T15:52:20.275Z,13.13
2018-11-01T15:54:55.250Z,12.77
2018-11-01T15:57:30.844Z,13.83
2018-11-01T16:00:07.053Z,12.87
2018-11-01T16:02:43.462Z,12.97
2018-11-01T16:05:18.698Z,12.90
2018-11-01T16:07:54.010Z,12.70
2018-11-01T16:10:29.568Z,11.83
2018-11-01T16:13:05.808Z,13.20
2018-11-01T16:15:41.149Z,12.50
2018-11-01T16:18:16.078Z,12.57
2018-11-01T16:20:51.763Z,13.47
2018-11-01T16:23:26.998Z,12.47
2018-11-01T16:26:02.187Z,11.93
2018-11-01T16:28:37.923Z,13.10
2018-11-01T16:31:13.252Z,13.57
2018-11-01T16:33:48.406Z,12.80
2018-11-01T16:36:24.694Z,12.30
2018-11-01T16:38:59.909Z,12.27
2018-11-01T16:41:35.361Z,12.60
2018-11-01T16:44:11.359Z,12.90
2018-11-01T16:46:46.376Z,12.67
2018-11-01T16:49:21.535Z,13.00
2018-11-01T16:51:57.151Z,14.33
2018-11-01T16:54:33.444Z,12.53
2018-11-01T16:57:12.198Z,13.07
2018-11-01T16:59:47.599Z,12.57
2018-11-01T17:02:22.966Z,14.20
2018-11-01T17:04:58.306Z,13.03
2018-11-01T17:07:33.917Z,12.70
2018-11-01T17:10:10.944Z,12.67
2018-11-01T17:12:46.456Z,14.17
2018-11-01T17:15:22.250Z,12.83
2018-11-01T17:17:57.301Z,14.40
2018-11-01T17:20:33.090Z,13.30
2018-11-01T17:23:08.774Z,14.50
2018-11-01T17:25:47.284Z,13.83
2018-11-01T17:28:22.715Z,13.00
2018-11-01T17:31:02.133Z,12.30
2018-11-01T17:33:42.396Z,12.73
2018-11-01T17:36:17.706Z,11.77
2018-11-01T17:38:53.050Z,13.60
2018-11-01T17:41:28.454Z,14.27
2018-11-01T17:44:05.132Z,14.40
2018-11-01T17:46:40.397Z,13.00
2018-11-01T17:49:15.735Z,13.70
2018-11-01T17:51:53.392Z,12.97
2018-11-01T17:54:28.614Z,12.57
2018-11-01T17:57:04.527Z,12.00
2018-11-01T17:59:39.954Z,12.17
2018-11-01T18:02:15.640Z,12.70
2018-11-01T18:04:51.990Z,12.60
2018-11-01T18:07:27.175Z,13.40
2018-11-01T18:10:02.917Z,11.67
2018-11-01T18:12:39.317Z,12.57
2018-11-01T18:15:14.320Z,12.23
2018-11-01T18:17:50.056Z,13.17
2018-11-01T18:20:29.439Z,12.87
2018-11-01T18:23:09.761Z,13.10
2018-11-01T18:25:50.195Z,12.10
2018-11-01T18:28:29.387Z,11.97
2018-11-01T18:31:05.071Z,12.17
2018-11-01T18:33:40.340Z,12.40
2018-11-01T18:36:15.691Z,12.57
2018-11-01T18:38:51.198Z,12.57
2018-11-01T18:41:26.104Z,13.30
2018-11-01T18:44:01.514Z,12.40
2018-11-01T18:46:36.599Z,12.57
2018-11-01T18:49:12.232Z,12.73
2018-11-01T18:51:47.533Z,12.37
2018-11-01T18:54:22.773Z,12.63
2018-11-01T18:56:58.489Z,13.67
2018-11-01T18:59:27.970Z,12.70
2018-11-01T19:02:03.628Z,13.53
2018-11-01T19:04:38.877Z,12.80
2018-11-01T19:07:14.021Z,12.63
2018-11-01T19:09:50.050Z,13.07
2018-11-01T19:12:25.764Z,13.57
2018-11-01T19:15:01.094Z,12.63
2018-11-01T19:17:36.041Z,13.10
2018-11-01T19:20:12.264Z,12.07
2018-11-01T19:22:47.274Z,12.07
2018-11-01T19:25:23.123Z,12.03
2018-11-01T19:27:58.983Z,11.03
2018-11-01T19:30:34.054Z,11.67
2018-11-01T19:33:14.337Z,12.00
2018-11-01T19:35:49.641Z,11.20
2018-11-01T19:38:24.778Z,12.10
2018-11-01T19:40:54.906Z,12.20
2018-11-01T19:43:30.479Z,11.90
2018-11-01T19:46:05.781Z,11.87
2018-11-01T19:48:40.888Z,11.43
2018-11-01T19:51:16.240Z,11.13
2018-11-01T19:53:51.397Z,11.50
2018-11-01T19:56:32.962Z,11.23
2018-11-01T19:59:09.077Z,11.43
2018-11-01T20:01:44.304Z,12.23
2018-11-01T20:04:19.878Z,12.10
2018-11-01T20:06:55.252Z,10.83
2018-11-01T20:09:30.640Z,11.30
2018-11-01T20:12:06.649Z,11.73
2018-11-01T20:14:42.543Z,10.97
2018-11-01T20:17:18.069Z,11.83
2018-11-01T20:19:53.565Z,11.00
2018-11-01T20:22:28.786Z,10.43
2018-11-01T20:25:04.687Z,10.30
2018-11-01T20:27:39.871Z,10.40
2018-11-01T20:30:16.095Z,11.20
2018-11-01T20:32:51.867Z,10.90
2018-11-01T20:35:27.885Z,10.30
2018-11-01T20:38:03.833Z,9.87
2018-11-01T20:40:39.632Z,10.70
2018-11-01T20:43:15.221Z,9.80
2018-11-01T20:45:50.638Z,10.60
2018-11-01T20:48:26.056Z,11.10
2018-11-01T20:51:01.223Z,9.57
2018-11-01T20:53:36.407Z,10.43
2018-11-01T20:56:11.890Z,11.17
2018-11-01T20:58:47.109Z,10.43
2018-11-01T21:01:22.610Z,10.90
2018-11-01T21:03:57.771Z,11.60
2018-11-01T21:06:33.022Z,12.17
2018-11-01T21:09:10.422Z,12.20
2018-11-01T21:11:45.830Z,11.00
2018-11-01T21:14:21.334Z,12.50
2018-11-01T21:16:56.551Z,10.90
2018-11-01T21:19:31.744Z,12.00
2018-11-01T21:22:10.983Z,11.37
2018-11-01T21:24:46.133Z,11.73
2018-11-01T21:27:21.770Z,12.03
2018-11-01T21:29:57.070Z,13.20
2018-11-01T21:32:32.636Z,12.13
2018-11-01T21:35:08.668Z,12.37
2018-11-01T21:37:43.756Z,12.83
2018-11-01T21:40:19.019Z,14.60
2018-11-01T21:42:54.497Z,14.03
2018-11-01T21:45:29.639Z,14.80
2018-11-01T21:48:05.154Z,15.10
2018-11-01T21:50:40.535Z,16.20
2018-11-01T21:53:15.718Z,15.63
2018-11-01T21:55:50.890Z,14.33
2018-11-01T21:58:26.203Z,15.10
2018-11-01T22:01:01.426Z,16.40
2018-11-01T22:03:37.134Z,15.93
2018-11-01T22:06:12.051Z,16.47
2018-11-01T22:08:47.067Z,16.53
2018-11-01T22:11:22.690Z,15.87
2018-11-01T22:13:58.318Z,16.10
2018-11-01T22:16:34.023Z,15.90
2018-11-01T22:19:09.265Z,15.00
2018-11-01T22:21:44.572Z,14.47
2018-11-01T22:24:19.692Z,14.80
2018-11-01T22:26:55.689Z,15.27
2018-11-01T22:29:31.221Z,14.87
2018-11-01T22:32:06.766Z,14.10
2018-11-01T22:34:42.815Z,15.73
2018-11-01T22:37:18.236Z,14.20
2018-11-01T22:39:53.448Z,14.00
2018-11-01T22:42:28.840Z,15.30
2018-11-01T22:45:04.925Z,14.90
2018-11-01T22:47:40.045Z,13.97
2018-11-01T22:50:15.064Z,14.63
2018-11-01T22:52:50.502Z,13.10
2018-11-01T22:55:25.277Z,12.40
2018-11-01T22:58:00.634Z,11.60
2018-11-01T23:00:35.614Z,12.20
2018-11-01T23:03:11.388Z,10.90
2018-11-01T23:05:47.192Z,12.20
2018-11-01T23:08:22.676Z,12.23
2018-11-01T23:10:57.727Z,12.10
2018-11-01T23:13:32.793Z,12.50
2018-11-01T23:16:08.341Z,14.30
2018-11-01T23:18:45.027Z,14.60
2018-11-01T23:21:19.959Z,13.30
2018-11-01T23:23:55.099Z,14.47
2018-11-01T23:26:30.363Z,15.27
2018-11-01T23:29:06.339Z,13.80
2018-11-01T23:31:41.721Z,14.10
2018-11-01T23:34:17.081Z,13.57
2018-11-01T23:36:57.292Z,12.33
2018-11-01T23:39:38.200Z,11.43
2018-11-01T23:42:19.029Z,11.07
2018-11-01T23:44:59.372Z,9.70
2018-11-01T23:47:39.715Z,10.10
2018-11-01T23:50:24.723Z,9.90
2018-11-01T23:53:03.349Z,9.20
2018-11-01T23:55:38.745Z,9.83
2018-11-01T23:58:14.995Z,9.70
